createdAt,value
2022-07-31T00:00:46.076Z,87.25
2022-07-31T00:01:49.514Z,87.36
2022-07-31T00:02:52.746Z,87.77
2022-07-31T00:03:56.006Z,87.09
2022-07-31T00:05:05.015Z,87.55
2022-07-31T00:06:09.117Z,86.72
2022-07-31T00:07:12.300Z,86.71
2022-07-31T00:08:16.104Z,87.28
2022-07-31T00:09:45.339Z,87.95
2022-07-31T00:10:42.553Z,88.24
2022-07-31T00:11:46.275Z,87.92
2022-07-31T00:12:49.488Z,87.89
2022-07-31T00:13:56.471Z,87.98
2022-07-31T00:15:11.356Z,88.07
2022-07-31T00:16:14.488Z,87.53
2022-07-31T00:17:20.600Z,87.53
2022-07-31T00:18:23.814Z,87.43
2022-07-31T00:19:27.083Z,86.58
2022-07-31T00:20:30.301Z,86.82
2022-07-31T00:21:33.516Z,86.99
2022-07-31T00:22:36.679Z,87.68
2022-07-31T00:23:41.360Z,87.51
2022-07-31T00:24:44.396Z,86.68
2022-07-31T00:25:47.623Z,87.48
2022-07-31T00:26:52.980Z,87.00
2022-07-31T00:27:56.095Z,86.20
2022-07-31T00:28:59.283Z,86.18
2022-07-31T00:30:02.686Z,85.83
2022-07-31T00:31:06.191Z,85.82
2022-07-31T00:32:09.542Z,85.37
2022-07-31T00:33:16.040Z,86.07
2022-07-31T00:34:19.096Z,86.37
2022-07-31T00:35:22.348Z,86.69
2022-07-31T00:36:29.063Z,86.77
2022-07-31T00:37:37.034Z,86.99
2022-07-31T00:38:44.092Z,86.96
2022-07-31T00:39:50.255Z,87.25
2022-07-31T00:40:53.494Z,87.19
2022-07-31T00:41:56.838Z,87.37
2022-07-31T00:42:59.961Z,87.31
2022-07-31T00:44:03.047Z,87.38
2022-07-31T00:45:08.340Z,87.22
2022-07-31T00:46:14.625Z,87.22
2022-07-31T00:47:18.566Z,87.17
2022-07-31T00:48:31.580Z,86.91
2022-07-31T00:49:37.839Z,87.06
2022-07-31T00:50:41.374Z,87.12
2022-07-31T00:51:44.477Z,87.23
2022-07-31T00:52:47.584Z,86.99
2022-07-31T00:53:50.815Z,87.08
2022-07-31T00:54:54.195Z,87.09
2022-07-31T00:56:01.360Z,86.81
2022-07-31T00:57:06.264Z,86.82
2022-07-31T00:58:09.724Z,86.62
2022-07-31T00:59:12.855Z,86.42
2022-07-31T01:00:16.642Z,86.46
2022-07-31T01:01:20.724Z,86.37
2022-07-31T01:02:24.280Z,86.46
2022-07-31T01:03:27.464Z,86.37
2022-07-31T01:04:31.740Z,86.37
2022-07-31T01:05:38.092Z,86.16
2022-07-31T01:06:42.783Z,85.66
2022-07-31T01:07:47.616Z,85.61
2022-07-31T01:08:50.885Z,84.18
2022-07-31T01:09:56.365Z,85.32
2022-07-31T01:11:08.727Z,85.83
2022-07-31T01:12:36.557Z,85.49
2022-07-31T01:13:51.891Z,85.84
2022-07-31T01:15:00.667Z,86.32
2022-07-31T01:16:07.875Z,86.18
2022-07-31T01:17:12.463Z,85.63
2022-07-31T01:18:17.810Z,85.28
2022-07-31T01:19:50.208Z,84.87
2022-07-31T01:20:58.389Z,84.44
2022-07-31T01:22:38.791Z,83.62
2022-07-31T01:24:08.945Z,83.43
2022-07-31T01:25:33.425Z,84.39
2022-07-31T01:26:46.705Z,84.50
2022-07-31T01:28:15.454Z,83.22
2022-07-31T01:29:39.286Z,82.53
2022-07-31T01:31:26.719Z,82.83
2022-07-31T01:32:38.721Z,81.56
2022-07-31T01:33:51.450Z,81.69
2022-07-31T01:35:18.278Z,81.85
2022-07-31T01:36:26.484Z,82.12
2022-07-31T01:37:59.183Z,82.51
2022-07-31T01:39:04.060Z,82.27
2022-07-31T01:40:26.776Z,80.87
2022-07-31T01:41:34.678Z,81.66
2022-07-31T01:42:41.246Z,81.44
2022-07-31T01:43:49.544Z,81.65
2022-07-31T01:44:57.359Z,81.79
2022-07-31T01:46:04.626Z,82.02
2022-07-31T01:47:09.468Z,81.24
2022-07-31T01:48:16.196Z,80.78
2022-07-31T01:49:22.205Z,81.74
2022-07-31T01:50:43.469Z,81.58
2022-07-31T01:51:49.910Z,81.05
2022-07-31T01:52:58.933Z,80.63
2022-07-31T01:54:03.809Z,80.74
2022-07-31T01:55:08.286Z,79.10
2022-07-31T01:56:12.851Z,79.56
2022-07-31T01:57:18.649Z,80.00
2022-07-31T01:58:24.604Z,80.76
2022-07-31T01:59:32.876Z,79.92
2022-07-31T02:00:39.188Z,80.56
2022-07-31T02:01:44.306Z,81.13
2022-07-31T02:02:54.427Z,80.79
2022-07-31T02:04:00.420Z,81.08
2022-07-31T02:05:08.467Z,80.74
2022-07-31T02:06:13.918Z,80.47
2022-07-31T02:07:18.513Z,80.75
2022-07-31T02:08:23.211Z,80.61
2022-07-31T02:09:29.625Z,80.80
2022-07-31T02:10:33.522Z,80.84
2022-07-31T02:11:42.025Z,80.70
2022-07-31T02:13:04.138Z,80.25
2022-07-31T02:14:07.916Z,79.77
2022-07-31T02:15:14.606Z,80.09
2022-07-31T02:16:19.423Z,79.87
2022-07-31T02:17:24.873Z,80.60
2022-07-31T02:18:29.079Z,80.66
2022-07-31T02:19:32.474Z,78.61
2022-07-31T02:20:39.084Z,78.70
2022-07-31T02:21:42.969Z,78.75
2022-07-31T02:22:46.119Z,78.39
2022-07-31T02:23:49.108Z,78.95
2022-07-31T02:24:52.101Z,79.36
2022-07-31T02:25:55.534Z,79.30
2022-07-31T02:27:00.211Z,79.92
2022-07-31T02:28:12.495Z,79.98
2022-07-31T02:29:19.493Z,80.35
2022-07-31T02:30:27.405Z,78.89
2022-07-31T02:31:44.677Z,79.80
2022-07-31T02:32:49.154Z,79.06
2022-07-31T02:33:53.895Z,79.51
2022-07-31T02:35:00.018Z,79.51
2022-07-31T02:36:03.859Z,77.89
2022-07-31T02:37:08.295Z,78.47
2022-07-31T02:38:22.387Z,78.39
2022-07-31T02:39:30.817Z,77.85
2022-07-31T02:40:39.154Z,78.45
2022-07-31T02:41:47.498Z,78.85
2022-07-31T02:42:51.962Z,77.99
2022-07-31T02:43:55.664Z,78.51
2022-07-31T02:45:01.429Z,78.64
2022-07-31T02:46:07.490Z,78.96
2022-07-31T02:47:13.256Z,79.28
2022-07-31T02:48:16.852Z,79.64
2022-07-31T02:49:20.240Z,78.58
2022-07-31T02:50:23.732Z,79.20
2022-07-31T02:51:26.867Z,78.95
2022-07-31T02:52:30.649Z,78.33
2022-07-31T02:53:34.638Z,78.84
2022-07-31T02:54:41.085Z,78.22
2022-07-31T02:55:47.948Z,78.76
2022-07-31T02:56:52.563Z,78.66
2022-07-31T02:57:55.800Z,78.69
2022-07-31T02:58:59.134Z,78.09
2022-07-31T03:00:02.856Z,78.68
2022-07-31T03:01:09.494Z,79.67
2022-07-31T03:02:12.897Z,78.98
2022-07-31T03:03:16.057Z,79.01
2022-07-31T03:04:19.589Z,78.47
2022-07-31T03:05:26.195Z,78.87
2022-07-31T03:06:29.362Z,78.71
2022-07-31T03:07:32.471Z,79.33
2022-07-31T03:08:35.677Z,79.44
2022-07-31T03:09:38.845Z,79.44
2022-07-31T03:10:41.982Z,79.31
2022-07-31T03:11:45.246Z,79.25
2022-07-31T03:12:52.051Z,80.26
2022-07-31T03:13:59.147Z,79.71
2022-07-31T03:15:03.760Z,80.43
2022-07-31T03:16:11.680Z,80.29
2022-07-31T03:17:15.359Z,80.28
2022-07-31T03:18:21.995Z,79.85
2022-07-31T03:19:26.902Z,78.69
2022-07-31T03:20:30.352Z,78.40
2022-07-31T03:21:34.975Z,78.04
2022-07-31T03:22:40.145Z,78.77
2022-07-31T03:23:43.365Z,79.01
2022-07-31T03:24:46.707Z,79.23
2022-07-31T03:25:51.178Z,78.42
2022-07-31T03:26:54.347Z,78.59
2022-07-31T03:27:57.389Z,78.02
2022-07-31T03:30:17.115Z,79.00
2022-07-31T03:31:20.575Z,78.52
2022-07-31T03:32:23.680Z,78.65
2022-07-31T03:33:26.721Z,78.44
2022-07-31T03:34:29.978Z,78.37
2022-07-31T03:35:34.769Z,78.01
2022-07-31T03:36:46.782Z,78.34
2022-07-31T03:37:50.006Z,78.85
2022-07-31T03:38:53.282Z,78.63
2022-07-31T03:39:56.334Z,78.05
2022-07-31T03:40:59.460Z,77.89
2022-07-31T03:42:04.031Z,77.96
2022-07-31T03:43:07.864Z,77.64
2022-07-31T03:44:11.799Z,78.07
2022-07-31T03:45:15.963Z,78.43
2022-07-31T03:46:21.911Z,78.16
2022-07-31T03:47:25.140Z,79.00
2022-07-31T03:48:30.382Z,78.98
2022-07-31T03:49:34.805Z,79.12
2022-07-31T03:50:39.587Z,79.21
2022-07-31T03:51:42.945Z,78.17
2022-07-31T03:52:48.877Z,78.56
2022-07-31T03:53:52.423Z,77.59
2022-07-31T03:54:56.226Z,78.16
2022-07-31T03:56:00.803Z,78.43
2022-07-31T03:57:04.169Z,78.94
2022-07-31T03:58:07.926Z,78.24
2022-07-31T03:59:11.396Z,77.56
2022-07-31T04:00:17.921Z,77.77
2022-07-31T04:01:22.375Z,78.01
2022-07-31T04:02:28.448Z,77.60
2022-07-31T04:03:32.600Z,78.04
2022-07-31T04:04:37.815Z,77.55
2022-07-31T04:05:42.123Z,77.80
2022-07-31T04:06:45.398Z,76.65
2022-07-31T04:07:48.813Z,76.85
2022-07-31T04:08:54.825Z,78.01
2022-07-31T04:09:57.970Z,78.27
2022-07-31T04:11:01.180Z,78.06
2022-07-31T04:12:05.422Z,77.90
2022-07-31T04:13:08.673Z,78.77
2022-07-31T04:14:11.802Z,78.78
2022-07-31T04:15:14.946Z,77.87
2022-07-31T04:16:18.206Z,78.09
2022-07-31T04:17:21.523Z,77.66
2022-07-31T04:18:24.634Z,77.95
2022-07-31T04:19:31.330Z,78.02
2022-07-31T04:20:34.399Z,77.99
2022-07-31T04:21:37.488Z,78.18
2022-07-31T04:22:41.578Z,78.42
2022-07-31T04:23:49.418Z,79.00
2022-07-31T04:24:53.778Z,78.03
2022-07-31T04:25:56.676Z,77.86
2022-07-31T04:26:59.726Z,77.39
2022-07-31T04:28:02.715Z,77.74
2022-07-31T04:29:05.787Z,77.72
2022-07-31T04:30:09.868Z,77.62
2022-07-31T04:31:12.912Z,77.68
2022-07-31T04:32:16.122Z,77.39
2022-07-31T04:33:19.360Z,77.37
2022-07-31T04:34:22.362Z,77.58
2022-07-31T04:35:25.440Z,78.11
2022-07-31T04:36:30.414Z,78.04
2022-07-31T04:37:34.286Z,78.48
2022-07-31T04:38:37.188Z,78.49
2022-07-31T04:39:40.200Z,78.55
2022-07-31T04:40:43.599Z,78.51
2022-07-31T04:41:46.539Z,78.84
2022-07-31T04:42:49.444Z,78.12
2022-07-31T04:43:52.456Z,78.49
2022-07-31T04:44:55.565Z,78.97
2022-07-31T04:45:58.491Z,78.66
2022-07-31T04:47:03.597Z,78.40
2022-07-31T04:48:06.957Z,78.53
2022-07-31T04:49:13.439Z,78.78
2022-07-31T04:50:16.508Z,78.62
2022-07-31T04:51:20.802Z,78.72
2022-07-31T04:52:23.811Z,78.73
2022-07-31T04:53:27.120Z,78.43
2022-07-31T04:54:30.144Z,78.42
2022-07-31T04:55:33.163Z,78.68
2022-07-31T04:56:44.926Z,78.37
2022-07-31T04:57:51.343Z,78.16
2022-07-31T04:58:54.348Z,78.08
2022-07-31T04:59:59.150Z,78.00
2022-07-31T05:01:04.093Z,78.26
2022-07-31T05:02:07.679Z,79.50
2022-07-31T05:03:10.983Z,80.27
2022-07-31T05:04:14.175Z,79.68
2022-07-31T05:05:18.623Z,79.72
2022-07-31T05:06:25.642Z,79.68
2022-07-31T05:07:29.063Z,80.70
2022-07-31T05:08:32.090Z,81.35
2022-07-31T05:09:36.333Z,80.49
2022-07-31T05:10:58.305Z,81.04
2022-07-31T05:12:02.020Z,81.41
2022-07-31T05:13:05.018Z,81.23
2022-07-31T05:14:09.477Z,82.49
2022-07-31T05:15:12.532Z,83.88
2022-07-31T05:16:15.525Z,83.24
2022-07-31T05:17:18.556Z,82.91
2022-07-31T05:18:21.592Z,84.35
2022-07-31T05:19:29.954Z,85.21
2022-07-31T05:20:33.021Z,84.87
2022-07-31T05:21:36.034Z,85.86
2022-07-31T05:22:57.260Z,86.61
2022-07-31T05:24:07.187Z,87.24
2022-07-31T05:25:10.145Z,85.91
2022-07-31T05:26:13.357Z,86.41
2022-07-31T05:27:16.430Z,87.70
2022-07-31T05:28:20.154Z,88.07
2022-07-31T05:29:34.113Z,88.61
2022-07-31T05:30:37.447Z,87.86
2022-07-31T05:31:40.443Z,88.89
2022-07-31T05:33:05.835Z,88.92
2022-07-31T05:34:08.867Z,89.82
2022-07-31T05:35:11.750Z,89.93
2022-07-31T05:36:16.133Z,88.86
2022-07-31T05:37:18.985Z,89.46
2022-07-31T05:38:22.335Z,90.73
2022-07-31T05:39:25.438Z,90.59
2022-07-31T05:40:28.500Z,90.63
2022-07-31T05:41:33.835Z,90.62
2022-07-31T05:42:40.322Z,88.90
2022-07-31T05:43:44.771Z,88.92
2022-07-31T05:44:47.658Z,89.37
2022-07-31T05:45:50.665Z,90.18
2022-07-31T05:47:59.135Z,89.83
2022-07-31T05:49:02.160Z,90.18
2022-07-31T05:50:05.601Z,89.58
2022-07-31T05:51:11.730Z,89.88
2022-07-31T05:52:20.450Z,89.87
2022-07-31T05:53:23.294Z,88.89
2022-07-31T05:54:26.190Z,89.33
2022-07-31T05:55:29.141Z,89.25
2022-07-31T05:56:32.137Z,89.50
2022-07-31T05:57:35.189Z,88.60
2022-07-31T05:58:38.126Z,89.20
2022-07-31T06:00:50.513Z,89.85
2022-07-31T06:01:53.544Z,90.11
2022-07-31T06:02:56.863Z,88.85
2022-07-31T06:03:59.798Z,88.23
2022-07-31T06:05:02.784Z,88.45
2022-07-31T06:06:06.151Z,88.95
2022-07-31T06:07:09.041Z,88.72
2022-07-31T06:08:13.201Z,89.14
2022-07-31T06:09:16.047Z,88.87
2022-07-31T06:10:20.216Z,89.49
2022-07-31T06:11:23.042Z,89.58
2022-07-31T06:12:26.154Z,90.24
2022-07-31T06:13:30.551Z,90.64
2022-07-31T06:14:33.367Z,89.68
2022-07-31T06:15:36.897Z,90.33
2022-07-31T06:16:39.905Z,90.37
2022-07-31T06:17:44.763Z,91.21
2022-07-31T06:18:48.395Z,90.43
2022-07-31T06:19:51.446Z,89.67
2022-07-31T06:20:54.474Z,91.25
2022-07-31T06:21:57.333Z,90.37
2022-07-31T06:23:04.409Z,90.63
2022-07-31T06:24:26.314Z,90.04
2022-07-31T06:25:32.018Z,90.44
2022-07-31T06:26:41.990Z,91.27
2022-07-31T06:27:48.782Z,89.73
2022-07-31T06:28:58.050Z,90.86
2022-07-31T06:30:00.939Z,90.79
2022-07-31T06:31:03.943Z,90.53
2022-07-31T06:32:07.080Z,90.62
2022-07-31T06:33:16.676Z,90.11
2022-07-31T06:34:32.933Z,90.60
2022-07-31T06:35:35.911Z,91.23
2022-07-31T06:36:38.969Z,91.40
2022-07-31T06:37:41.971Z,91.04
2022-07-31T06:38:44.942Z,90.15
2022-07-31T06:39:55.408Z,91.00
2022-07-31T06:40:59.412Z,92.07
2022-07-31T06:42:02.650Z,90.93
2022-07-31T06:43:06.940Z,90.80
2022-07-31T06:44:10.369Z,92.13
2022-07-31T06:45:25.082Z,90.51
2022-07-31T06:46:36.317Z,90.59
2022-07-31T06:47:39.280Z,89.50
2022-07-31T06:48:42.210Z,89.39
2022-07-31T06:49:45.375Z,89.50
2022-07-31T06:50:48.815Z,89.12
2022-07-31T06:51:55.168Z,89.29
2022-07-31T06:52:58.064Z,90.39
2022-07-31T06:54:02.132Z,90.26
2022-07-31T06:55:06.086Z,90.16
2022-07-31T06:56:09.606Z,89.94
2022-07-31T06:57:13.093Z,88.96
2022-07-31T06:58:16.039Z,89.11
2022-07-31T07:00:26.766Z,87.93
2022-07-31T07:01:29.862Z,88.24
2022-07-31T07:02:32.883Z,88.01
2022-07-31T07:03:35.790Z,88.49
2022-07-31T07:05:04.423Z,88.78
2022-07-31T07:06:03.709Z,89.00
2022-07-31T07:07:06.617Z,88.60
2022-07-31T07:08:09.471Z,87.11
2022-07-31T07:09:12.556Z,86.90
2022-07-31T07:10:15.661Z,86.46
2022-07-31T07:11:19.435Z,87.23
2022-07-31T07:12:22.421Z,86.62
2022-07-31T07:13:45.144Z,85.77
2022-07-31T07:14:49.662Z,84.84
2022-07-31T07:15:52.863Z,85.89
2022-07-31T07:16:55.749Z,86.50
2022-07-31T07:17:58.833Z,85.46
2022-07-31T07:19:08.255Z,86.10
2022-07-31T07:20:11.376Z,86.51
2022-07-31T07:21:16.273Z,85.97
2022-07-31T07:22:19.154Z,84.37
2022-07-31T07:23:34.356Z,85.28
2022-07-31T07:24:37.229Z,85.54
2022-07-31T07:25:41.117Z,85.93
2022-07-31T07:26:44.125Z,85.71
2022-07-31T07:27:47.565Z,86.35
2022-07-31T07:28:50.962Z,86.33
2022-07-31T07:29:53.896Z,84.90
2022-07-31T07:30:56.914Z,85.29
2022-07-31T07:32:00.225Z,85.10
2022-07-31T07:33:03.189Z,85.44
2022-07-31T07:34:06.588Z,86.79
2022-07-31T07:35:09.666Z,86.75
2022-07-31T07:36:23.360Z,86.32
2022-07-31T07:37:28.537Z,85.39
2022-07-31T07:38:31.466Z,84.64
2022-07-31T07:39:38.814Z,85.80
2022-07-31T07:40:41.675Z,84.54
2022-07-31T07:41:44.538Z,84.69
2022-07-31T07:42:47.904Z,84.21
2022-07-31T07:43:52.513Z,84.60
2022-07-31T07:44:55.751Z,86.02
2022-07-31T07:45:59.231Z,85.79
2022-07-31T07:47:02.043Z,86.46
2022-07-31T07:48:07.578Z,85.64
2022-07-31T07:49:10.624Z,84.71
2022-07-31T07:50:15.839Z,84.70
2022-07-31T07:51:19.983Z,85.07
2022-07-31T07:52:22.903Z,86.31
2022-07-31T07:53:25.815Z,85.05
2022-07-31T07:54:30.001Z,84.30
2022-07-31T07:55:37.814Z,83.78
2022-07-31T07:56:40.986Z,82.51
2022-07-31T07:57:45.626Z,82.94
2022-07-31T07:58:49.412Z,82.59
2022-07-31T07:59:52.945Z,81.93
2022-07-31T08:00:55.820Z,83.07
2022-07-31T08:01:58.774Z,82.42
2022-07-31T08:03:46.866Z,82.17
2022-07-31T08:04:25.048Z,81.91
2022-07-31T08:05:27.925Z,81.65
2022-07-31T08:06:30.840Z,81.02
2022-07-31T08:07:42.081Z,80.89
2022-07-31T08:08:53.455Z,79.49
2022-07-31T08:09:59.874Z,80.44
2022-07-31T08:11:05.035Z,79.41
2022-07-31T08:12:08.786Z,79.61
2022-07-31T08:13:15.440Z,78.44
2022-07-31T08:14:18.321Z,77.48
2022-07-31T08:15:22.431Z,75.60
2022-07-31T08:16:25.729Z,76.26
2022-07-31T08:17:28.937Z,76.23
2022-07-31T08:18:32.124Z,77.69
2022-07-31T08:19:34.976Z,77.31
2022-07-31T08:20:38.886Z,77.64
2022-07-31T08:21:42.057Z,76.53
2022-07-31T08:22:45.939Z,77.16
2022-07-31T08:23:48.968Z,75.83
2022-07-31T08:24:52.119Z,75.10
2022-07-31T08:25:55.395Z,75.67
2022-07-31T08:27:17.130Z,75.84
2022-07-31T08:28:29.544Z,75.12
2022-07-31T08:29:32.636Z,76.15
2022-07-31T08:30:40.212Z,75.37
2022-07-31T08:31:43.183Z,74.24
2022-07-31T08:32:52.660Z,73.67
2022-07-31T08:33:55.636Z,72.94
2022-07-31T08:35:02.540Z,73.14
2022-07-31T08:36:09.515Z,72.53
2022-07-31T08:37:59.182Z,71.33
2022-07-31T08:38:37.114Z,71.01
2022-07-31T08:39:40.418Z,69.58
2022-07-31T08:40:43.851Z,70.12
2022-07-31T08:41:46.836Z,71.08
2022-07-31T08:42:49.872Z,71.40
2022-07-31T08:44:02.895Z,70.43
2022-07-31T08:45:08.303Z,70.74
2022-07-31T08:46:13.284Z,70.16
2022-07-31T08:47:17.456Z,69.80
2022-07-31T08:48:25.545Z,70.20
2022-07-31T08:49:31.332Z,68.70
2022-07-31T08:50:38.743Z,68.00
2022-07-31T08:51:50.911Z,68.19
2022-07-31T08:52:59.229Z,67.96
2022-07-31T08:54:07.312Z,68.64
2022-07-31T08:55:11.031Z,68.49
2022-07-31T08:56:29.070Z,69.18
2022-07-31T08:57:32.197Z,69.56
2022-07-31T08:58:39.252Z,69.73
2022-07-31T08:59:43.231Z,70.31
2022-07-31T09:00:46.231Z,69.49
2022-07-31T09:01:49.698Z,70.19
2022-07-31T09:02:55.418Z,70.82
2022-07-31T09:03:59.371Z,70.30
2022-07-31T09:05:02.369Z,69.54
2022-07-31T09:06:06.590Z,69.57
2022-07-31T09:07:15.097Z,69.20
2022-07-31T09:08:18.768Z,70.60
2022-07-31T09:09:21.796Z,69.91
2022-07-31T09:10:28.918Z,69.32
2022-07-31T09:11:32.393Z,69.52
2022-07-31T09:12:38.621Z,70.21
2022-07-31T09:14:03.441Z,70.05
2022-07-31T09:15:20.464Z,70.59
2022-07-31T09:16:30.542Z,69.55
2022-07-31T09:17:36.486Z,69.27
2022-07-31T09:18:39.345Z,69.63
2022-07-31T09:19:52.544Z,70.09
2022-07-31T09:21:02.895Z,70.15
2022-07-31T09:22:10.309Z,70.36
2022-07-31T09:23:14.533Z,71.09
2022-07-31T09:24:31.926Z,69.88
2022-07-31T09:25:40.333Z,70.19
2022-07-31T09:26:43.343Z,70.04
2022-07-31T09:27:51.149Z,69.99
2022-07-31T09:28:54.032Z,69.17
2022-07-31T09:29:57.670Z,70.28
2022-07-31T09:31:01.178Z,70.28
2022-07-31T09:32:24.276Z,70.55
2022-07-31T09:33:29.895Z,70.37
2022-07-31T09:34:32.720Z,70.87
2022-07-31T09:35:41.654Z,71.10
2022-07-31T09:36:44.680Z,69.63
2022-07-31T09:37:54.309Z,70.29
2022-07-31T09:38:57.952Z,71.26
2022-07-31T09:40:09.561Z,71.20
2022-07-31T09:41:55.941Z,69.65
2022-07-31T09:42:52.925Z,69.58
2022-07-31T09:44:09.895Z,70.68
2022-07-31T09:45:21.677Z,71.39
2022-07-31T09:46:24.507Z,70.97
2022-07-31T09:47:32.629Z,68.75
2022-07-31T09:48:37.419Z,69.07
2022-07-31T09:49:40.371Z,67.73
2022-07-31T09:50:57.066Z,68.04
2022-07-31T09:52:00.990Z,67.34
2022-07-31T09:53:04.051Z,67.27
2022-07-31T09:54:07.181Z,65.32
2022-07-31T09:55:16.129Z,64.64
2022-07-31T09:56:40.018Z,64.78
2022-07-31T09:57:57.877Z,63.26
2022-07-31T09:59:02.081Z,62.52
2022-07-31T10:00:12.776Z,62.71
2022-07-31T10:01:19.940Z,62.68
2022-07-31T10:02:26.949Z,61.75
2022-07-31T10:03:34.468Z,60.93
2022-07-31T10:04:41.709Z,62.38
2022-07-31T10:05:45.944Z,63.09
2022-07-31T10:06:50.442Z,62.97
2022-07-31T10:07:57.182Z,63.59
2022-07-31T10:09:06.346Z,64.79
2022-07-31T10:10:12.547Z,64.36
2022-07-31T10:11:22.308Z,63.68
2022-07-31T10:12:29.715Z,63.80
2022-07-31T10:13:38.831Z,65.23
2022-07-31T10:14:47.730Z,65.50
2022-07-31T10:15:54.542Z,65.16
2022-07-31T10:17:01.693Z,66.20
2022-07-31T10:18:06.024Z,66.09
2022-07-31T10:19:12.633Z,66.52
2022-07-31T10:20:22.057Z,66.13
2022-07-31T10:21:34.174Z,66.54
2022-07-31T10:22:46.748Z,66.48
2022-07-31T10:23:49.813Z,66.33
2022-07-31T10:24:54.329Z,67.25
2022-07-31T10:26:00.561Z,67.00
2022-07-31T10:27:10.547Z,67.01
2022-07-31T10:28:14.607Z,67.02
2022-07-31T10:29:18.155Z,67.35
2022-07-31T10:30:26.028Z,66.65
2022-07-31T10:31:31.710Z,67.03
2022-07-31T10:32:35.479Z,66.58
2022-07-31T10:33:44.203Z,67.18
2022-07-31T10:34:48.294Z,67.25
2022-07-31T10:35:59.763Z,67.24
2022-07-31T10:37:11.173Z,66.72
2022-07-31T10:38:24.424Z,66.84
2022-07-31T10:39:39.570Z,66.41
2022-07-31T10:40:47.537Z,66.34
2022-07-31T10:42:23.770Z,66.82
2022-07-31T10:43:30.637Z,66.95
2022-07-31T10:44:47.389Z,67.62
2022-07-31T10:45:52.464Z,66.06
2022-07-31T10:46:55.680Z,66.56
2022-07-31T10:48:01.026Z,66.17
2022-07-31T10:49:08.957Z,65.95
2022-07-31T10:50:23.385Z,66.36
2022-07-31T10:51:26.983Z,65.43
2022-07-31T10:52:31.936Z,65.09
2022-07-31T10:53:51.026Z,64.04
2022-07-31T10:55:00.281Z,64.75
2022-07-31T10:56:04.969Z,63.38
2022-07-31T10:57:08.219Z,62.77
2022-07-31T10:58:15.801Z,61.24
2022-07-31T10:59:29.490Z,61.45
2022-07-31T11:00:32.498Z,61.32
2022-07-31T11:01:53.252Z,61.68
2022-07-31T11:02:56.366Z,61.44
2022-07-31T11:04:05.209Z,60.38
2022-07-31T11:05:09.252Z,60.06
2022-07-31T11:06:13.152Z,59.96
2022-07-31T11:07:20.381Z,59.73
2022-07-31T11:08:26.526Z,58.87
2022-07-31T11:09:29.850Z,58.94
2022-07-31T11:10:34.399Z,59.34
2022-07-31T11:11:38.113Z,57.56
2022-07-31T11:12:41.101Z,57.42
2022-07-31T11:13:52.097Z,56.54
2022-07-31T11:14:54.950Z,56.67
2022-07-31T11:16:05.582Z,57.28
2022-07-31T11:17:08.803Z,57.00
2022-07-31T11:18:24.077Z,57.11
2022-07-31T11:19:41.989Z,56.87
2022-07-31T11:20:48.853Z,57.68
2022-07-31T11:21:57.814Z,57.27
2022-07-31T11:23:06.624Z,57.41
2022-07-31T11:24:15.187Z,56.20
2022-07-31T11:25:19.099Z,57.37
2022-07-31T11:26:33.404Z,57.85
2022-07-31T11:27:44.542Z,57.81
2022-07-31T11:28:47.394Z,56.67
2022-07-31T11:29:59.799Z,57.67
2022-07-31T11:31:07.727Z,57.07
2022-07-31T11:32:25.874Z,56.67
2022-07-31T11:33:48.435Z,55.90
2022-07-31T11:34:56.321Z,56.87
2022-07-31T11:36:12.093Z,56.73
2022-07-31T11:37:20.961Z,57.70
2022-07-31T11:38:29.318Z,58.22
2022-07-31T11:39:36.878Z,58.19
2022-07-31T11:40:43.616Z,58.77
2022-07-31T11:41:48.759Z,58.90
2022-07-31T11:43:10.437Z,58.27
2022-07-31T11:44:21.869Z,57.24
2022-07-31T11:45:24.948Z,57.01
2022-07-31T11:46:34.160Z,57.44
2022-07-31T11:48:11.914Z,56.64
2022-07-31T11:49:05.527Z,57.00
2022-07-31T11:50:10.819Z,58.10
2022-07-31T11:51:19.783Z,59.15
2022-07-31T11:52:30.743Z,59.26
2022-07-31T11:53:42.185Z,59.45
2022-07-31T11:54:48.466Z,59.20
2022-07-31T11:55:53.239Z,59.84
2022-07-31T11:56:56.851Z,60.08
2022-07-31T11:57:59.789Z,59.56
2022-07-31T11:59:02.701Z,58.74
2022-07-31T12:00:26.769Z,55.89
2022-07-31T12:01:32.804Z,57.48
2022-07-31T12:02:35.928Z,57.25
2022-07-31T12:03:43.669Z,57.00
2022-07-31T12:04:47.436Z,57.40
2022-07-31T12:05:52.651Z,55.56
2022-07-31T12:06:57.564Z,56.07
2022-07-31T12:08:00.683Z,55.03
2022-07-31T12:09:05.088Z,54.82
2022-07-31T12:10:12.929Z,54.05
2022-07-31T12:11:18.671Z,54.30
2022-07-31T12:12:21.774Z,55.03
2022-07-31T12:13:30.488Z,54.54
2022-07-31T12:14:38.657Z,56.18
2022-07-31T12:15:41.865Z,56.27
2022-07-31T12:16:44.864Z,56.76
2022-07-31T12:17:48.092Z,56.68
2022-07-31T12:18:54.084Z,56.32
2022-07-31T12:20:07.166Z,56.75
2022-07-31T12:21:10.724Z,56.22
2022-07-31T12:22:15.897Z,57.34
2022-07-31T12:23:41.118Z,57.04
2022-07-31T12:24:43.369Z,56.56
2022-07-31T12:25:46.810Z,57.35
2022-07-31T12:26:52.365Z,57.95
2022-07-31T12:27:55.915Z,58.16
2022-07-31T12:29:05.071Z,58.87
2022-07-31T12:30:18.355Z,58.76
2022-07-31T12:31:21.335Z,58.52
2022-07-31T12:32:27.907Z,57.47
2022-07-31T12:33:41.863Z,58.80
2022-07-31T12:34:45.773Z,59.09
2022-07-31T12:35:55.270Z,58.82
2022-07-31T12:37:26.363Z,59.95
2022-07-31T12:38:45.356Z,60.49
2022-07-31T12:41:05.658Z,60.00
2022-07-31T12:42:08.839Z,59.76
2022-07-31T12:43:11.684Z,59.90
2022-07-31T12:44:14.892Z,59.39
2022-07-31T12:45:35.702Z,60.27
2022-07-31T12:46:38.825Z,60.11
2022-07-31T12:47:41.838Z,59.90
2022-07-31T12:48:46.272Z,60.16
2022-07-31T12:49:49.621Z,59.73
2022-07-31T12:50:54.033Z,60.60
2022-07-31T12:51:56.910Z,61.09
2022-07-31T12:53:03.252Z,59.75
2022-07-31T12:54:07.255Z,59.95
2022-07-31T12:55:12.517Z,60.22
2022-07-31T12:56:15.432Z,59.65
2022-07-31T12:57:18.354Z,59.33
2022-07-31T12:58:24.295Z,59.79
2022-07-31T12:59:27.283Z,59.18
2022-07-31T13:00:30.163Z,59.52
2022-07-31T13:01:34.281Z,59.97
2022-07-31T13:02:37.196Z,60.04
2022-07-31T13:03:46.424Z,59.99
2022-07-31T13:04:49.432Z,61.04
2022-07-31T13:05:52.381Z,60.08
2022-07-31T13:06:55.441Z,59.88
2022-07-31T13:07:58.768Z,60.49
2022-07-31T13:09:02.035Z,60.69
2022-07-31T13:10:19.896Z,60.12
2022-07-31T13:11:48.187Z,60.93
2022-07-31T13:12:52.517Z,60.30
2022-07-31T13:13:57.779Z,60.93
2022-07-31T13:15:02.410Z,61.34
2022-07-31T13:16:05.841Z,61.44
2022-07-31T13:17:08.862Z,61.91
2022-07-31T13:18:12.054Z,62.15
2022-07-31T13:19:15.773Z,63.12
2022-07-31T13:20:19.455Z,62.16
2022-07-31T13:21:22.652Z,62.16
2022-07-31T13:22:25.575Z,62.18
2022-07-31T13:23:28.550Z,62.01
2022-07-31T13:24:31.822Z,62.80
2022-07-31T13:25:34.987Z,63.01
2022-07-31T13:26:38.485Z,63.21
2022-07-31T13:27:45.537Z,62.51
2022-07-31T13:28:48.527Z,63.43
2022-07-31T13:29:51.553Z,63.82
2022-07-31T13:30:55.329Z,63.08
2022-07-31T13:31:59.410Z,62.81
2022-07-31T13:33:02.291Z,62.90
2022-07-31T13:34:05.374Z,61.88
2022-07-31T13:35:19.660Z,62.58
2022-07-31T13:36:35.793Z,61.53
2022-07-31T13:37:46.667Z,62.09
2022-07-31T13:38:50.593Z,61.64
2022-07-31T13:39:53.693Z,61.16
2022-07-31T13:41:15.357Z,60.65
2022-07-31T13:42:18.449Z,59.71
2022-07-31T13:43:21.402Z,59.84
2022-07-31T13:44:24.466Z,60.27
2022-07-31T13:45:27.332Z,59.97
2022-07-31T13:46:31.572Z,58.46
2022-07-31T13:47:51.615Z,58.36
2022-07-31T13:49:01.814Z,57.32
2022-07-31T13:50:05.897Z,56.90
2022-07-31T13:51:09.737Z,57.20
2022-07-31T13:52:12.617Z,58.11
2022-07-31T13:53:15.404Z,57.27
2022-07-31T13:54:18.475Z,56.41
2022-07-31T13:55:21.315Z,56.73
2022-07-31T13:56:39.778Z,56.50
2022-07-31T13:57:46.715Z,55.49
2022-07-31T13:58:49.827Z,55.90
2022-07-31T13:59:56.657Z,55.13
2022-07-31T14:01:04.391Z,55.78
2022-07-31T14:02:08.178Z,55.45
2022-07-31T14:03:12.512Z,54.79
2022-07-31T14:04:23.822Z,53.91
2022-07-31T14:05:27.907Z,53.98
2022-07-31T14:06:30.855Z,53.50
2022-07-31T14:07:45.416Z,53.73
2022-07-31T14:08:54.732Z,53.67
2022-07-31T14:09:57.658Z,53.09
2022-07-31T14:11:01.060Z,52.85
2022-07-31T14:12:08.069Z,53.89
2022-07-31T14:13:12.774Z,53.86
2022-07-31T14:14:22.797Z,53.77
2022-07-31T14:15:30.202Z,52.91
2022-07-31T14:16:39.536Z,51.71
2022-07-31T14:17:42.562Z,52.63
2022-07-31T14:18:45.703Z,53.40
2022-07-31T14:19:48.629Z,52.98
2022-07-31T14:20:51.743Z,53.17
2022-07-31T14:21:56.715Z,53.03